TFM - Tactical Decision Aid (Experimental) INFO Settings

ID: Runway Winds: CIG/VIS Threshold: METAR Board: Map:

KIAD - Washington-Dulles Intl

Updated at: 0023 UTC 03 Aug 2015
Latest TAF at: 2335 UTC 02 Aug 2015

TAF Board

Time2352Z03/01Z03/02Z03/03Z03/04Z03/05Z03/06Z03/07Z03/08Z03/09Z03/10Z03/11Z03/12Z03/13Z
TypeOBSPRVLPRVLPRVLPRVLPRVLPRVLPRVLPRVLPRVLPRVLPRVLPRVLPRVL
VIS10>6>6>6>6>6>6>6>6>6>6>6>6>6
CIG----------------------------
CoverFEWSCTSCTSCTSCTSCTSCTSCTSCTSCTSCTSCTSCTSCT
FltCatVFRVFRVFRVFRVFRVFRVFRVFRVFRVFRVFRVFRVFRVFR
WX----------------------------
WDir200220220220220220220220220220220220220220
WSpd66666666666666
WGst----------------------------
TAF
KIAD 022335Z 0300/0406 22006KT P6SM SCT250
  FM031700 21010G17KT P6SM FEW060
  FM040000 20007KT P6SM BKN070


METAR
KIAD 022352Z 20006KT 10SM FEW200 26/16 A2992 RMK AO2 SLP128 T02560161 10306 20256 55007

TAF/METAR Board Legend

Potential Impact
  None Marginal Slight Moderate High
Visibility (sm) >5 3≤X≤5 1≤X<3 0.5≤X<1 <0.5
Ceiling (100 ft) >30 10≤X≤30 4≤X<10 2≤X<4 <2
Wind Speed (kt) <10 10≤X<20 20≤X<30 ≥30
Wind Gust (kt) <15 15≤X<25 25≤X<35 ≥35
Weather No Wx Reported VCTS -TS,-FZRA TS,FZRA +TS,+FZRA